createdAt,value
2024-02-19T14:13:26.101Z,33.40
2024-02-19T14:14:03.259Z,33.23
2024-02-19T14:14:37.989Z,33.26
2024-02-19T14:15:12.895Z,33.46
2024-02-19T14:15:47.739Z,33.40
2024-02-19T14:16:22.346Z,33.03
2024-02-19T14:16:57.374Z,33.79
2024-02-19T14:17:31.800Z,33.16
2024-02-19T14:18:06.593Z,33.55
2024-02-19T14:18:42.557Z,33.17
2024-02-19T14:19:17.530Z,33.55
2024-02-19T14:19:52.844Z,33.39
2024-02-19T14:20:27.569Z,33.15
2024-02-19T14:21:02.105Z,33.81
2024-02-19T14:21:36.804Z,33.71
2024-02-19T14:22:12.445Z,33.52
2024-02-19T14:22:50.627Z,33.45
2024-02-19T14:23:25.636Z,33.23
2024-02-19T14:24:00.202Z,32.94
2024-02-19T14:24:34.670Z,33.25
2024-02-19T14:25:11.423Z,33.72
2024-02-19T14:25:50.614Z,33.75
2024-02-19T14:26:25.766Z,33.49
2024-02-19T14:27:00.161Z,33.77
2024-02-19T14:27:35.150Z,33.81
2024-02-19T14:28:10.934Z,33.09
2024-02-19T14:28:45.700Z,33.77
2024-02-19T14:29:20.646Z,33.32
2024-02-19T14:29:55.969Z,33.84
2024-02-19T14:30:30.211Z,33.56
2024-02-19T14:31:05.203Z,33.16
2024-02-19T14:31:39.837Z,33.89
2024-02-19T14:32:15.776Z,33.53
2024-02-19T14:32:50.956Z,33.67
2024-02-19T14:33:25.770Z,33.14
2024-02-19T14:34:01.293Z,33.72
2024-02-19T14:34:37.242Z,33.44
2024-02-19T14:35:14.575Z,33.19
2024-02-19T14:35:49.724Z,33.89
2024-02-19T14:36:25.613Z,33.69
2024-02-19T14:37:00.554Z,33.20
2024-02-19T14:37:38.942Z,33.65
2024-02-19T14:38:13.524Z,33.40
2024-02-19T14:38:48.091Z,33.56
2024-02-19T14:39:23.770Z,33.25
2024-02-19T14:39:58.373Z,33.21
2024-02-19T14:40:33.212Z,33.44
2024-02-19T14:41:10.260Z,33.90
2024-02-19T14:41:44.890Z,33.51
2024-02-19T14:42:19.707Z,33.58
2024-02-19T14:42:54.915Z,33.21
2024-02-19T14:43:30.149Z,33.20
2024-02-19T14:44:04.654Z,32.92
2024-02-19T14:44:39.255Z,33.12
2024-02-19T14:45:14.483Z,33.38
2024-02-19T14:45:49.551Z,33.83
2024-02-19T14:46:24.016Z,33.97
2024-02-19T14:47:06.383Z,33.97
2024-02-19T14:47:44.539Z,34.51
2024-02-19T14:48:19.056Z,34.49
2024-02-19T14:48:53.911Z,34.56
2024-02-19T14:49:32.151Z,34.29
2024-02-19T14:50:07.749Z,34.46
2024-02-19T14:50:44.968Z,34.28
2024-02-19T14:51:21.442Z,34.18
2024-02-19T14:51:58.562Z,34.23
2024-02-19T14:52:37.583Z,34.11
2024-02-19T14:53:13.187Z,34.71
2024-02-19T14:53:49.086Z,34.48
2024-02-19T14:54:24.294Z,34.21
2024-02-19T14:55:00.021Z,34.03
2024-02-19T14:55:35.828Z,34.14
2024-02-19T14:56:11.420Z,34.00
2024-02-19T14:56:46.423Z,34.17
2024-02-19T14:57:21.994Z,34.11
2024-02-19T14:57:57.215Z,33.83
2024-02-19T14:58:32.141Z,33.42
2024-02-19T14:59:07.032Z,34.14
2024-02-19T14:59:43.841Z,33.52
2024-02-19T15:00:22.755Z,34.12
2024-02-19T15:00:57.875Z,33.97
2024-02-19T15:01:33.133Z,33.27
2024-02-19T15:02:07.852Z,33.53
2024-02-19T15:02:42.913Z,33.83
2024-02-19T15:03:17.657Z,33.32
2024-02-19T15:03:53.307Z,33.39
2024-02-19T15:04:29.146Z,33.58
2024-02-19T15:05:04.306Z,33.21
2024-02-19T15:05:39.139Z,33.51
2024-02-19T15:06:14.639Z,33.10
2024-02-19T15:06:49.837Z,33.97
2024-02-19T15:07:27.747Z,33.46
2024-02-19T15:08:02.599Z,33.63
2024-02-19T15:08:37.948Z,33.87
2024-02-19T15:09:14.810Z,33.33
2024-02-19T15:09:50.771Z,33.19
2024-02-19T15:10:28.794Z,33.05
2024-02-19T15:11:05.347Z,33.24
2024-02-19T15:11:40.691Z,33.18
2024-02-19T15:12:14.956Z,32.89
2024-02-19T15:12:50.530Z,33.45
2024-02-19T15:13:25.070Z,33.76
2024-02-19T15:14:00.883Z,33.78
2024-02-19T15:14:36.014Z,33.03
2024-02-19T15:15:15.170Z,33.31
2024-02-19T15:15:50.136Z,33.40
2024-02-19T15:16:25.439Z,33.76
2024-02-19T15:17:01.686Z,33.58
2024-02-19T15:17:37.590Z,33.23
2024-02-19T15:18:16.070Z,33.01
2024-02-19T15:18:52.055Z,33.89
2024-02-19T15:19:26.761Z,33.26
2024-02-19T15:20:02.207Z,33.11
2024-02-19T15:20:38.199Z,33.53
2024-02-19T15:21:13.360Z,33.66
2024-02-19T15:21:48.625Z,32.96
2024-02-19T15:22:25.117Z,33.60
2024-02-19T15:23:02.198Z,33.15
2024-02-19T15:23:40.708Z,33.08
2024-02-19T15:24:16.203Z,33.89
2024-02-19T15:24:50.500Z,33.42
2024-02-19T15:25:25.090Z,32.87
2024-02-19T15:26:02.274Z,33.43
2024-02-19T15:26:37.295Z,33.24
2024-02-19T15:27:12.595Z,33.78
2024-02-19T15:27:47.854Z,33.69
2024-02-19T15:28:22.353Z,33.76
2024-02-19T15:28:58.030Z,33.72
2024-02-19T15:29:32.711Z,33.61
2024-02-19T15:30:08.381Z,33.15
2024-02-19T15:30:44.156Z,33.29
2024-02-19T15:31:18.803Z,33.34
2024-02-19T15:31:54.008Z,33.28
2024-02-19T15:32:28.411Z,33.45
2024-02-19T15:33:03.149Z,33.28
2024-02-19T15:33:38.426Z,33.39
2024-02-19T15:34:13.263Z,33.53
2024-02-19T15:34:48.150Z,33.26
2024-02-19T15:35:23.935Z,32.98
2024-02-19T15:36:00.504Z,33.29
2024-02-19T15:36:34.882Z,33.08
2024-02-19T15:37:09.336Z,33.40
2024-02-19T15:37:44.225Z,33.38
2024-02-19T15:38:18.582Z,32.93
2024-02-19T15:38:53.472Z,33.68
2024-02-19T15:39:27.673Z,33.72
2024-02-19T15:40:02.365Z,33.43
2024-02-19T15:40:36.982Z,33.65
2024-02-19T15:41:13.889Z,33.63
2024-02-19T15:41:48.760Z,33.29
2024-02-19T15:42:24.442Z,33.02
2024-02-19T15:42:59.921Z,33.34
2024-02-19T15:43:34.814Z,32.75
2024-02-19T15:44:09.535Z,33.30
2024-02-19T15:44:44.662Z,33.24
2024-02-19T15:45:19.695Z,33.61
2024-02-19T15:45:55.194Z,33.04
2024-02-19T15:46:31.138Z,33.22
2024-02-19T15:47:06.902Z,33.39
2024-02-19T15:47:41.903Z,32.95
2024-02-19T15:48:16.303Z,32.83
2024-02-19T15:48:50.792Z,33.72
2024-02-19T15:49:25.778Z,33.21
2024-02-19T15:50:01.187Z,33.59
2024-02-19T15:50:35.725Z,33.37
2024-02-19T15:51:10.423Z,33.53
2024-02-19T15:51:47.186Z,33.35
2024-02-19T15:52:22.125Z,33.77
2024-02-19T15:53:01.968Z,33.83
2024-02-19T15:53:40.470Z,33.48
2024-02-19T15:54:14.780Z,33.56
2024-02-19T15:54:52.316Z,33.69
2024-02-19T15:55:26.928Z,33.32
2024-02-19T15:56:01.687Z,33.36
2024-02-19T15:56:38.207Z,33.71
2024-02-19T15:57:13.619Z,33.66
2024-02-19T15:57:49.248Z,33.81
2024-02-19T15:58:24.329Z,33.55
2024-02-19T15:58:59.134Z,33.87
2024-02-19T15:59:34.132Z,33.45
2024-02-19T16:00:10.051Z,34.04
2024-02-19T16:00:48.359Z,33.32
2024-02-19T16:01:23.795Z,33.76
2024-02-19T16:02:00.321Z,33.63
2024-02-19T16:02:40.509Z,33.67
2024-02-19T16:03:20.766Z,33.21
2024-02-19T16:03:56.619Z,33.14
2024-02-19T16:04:31.916Z,33.73
2024-02-19T16:05:09.519Z,33.30
2024-02-19T16:05:44.940Z,33.32
2024-02-19T16:06:22.538Z,33.16
2024-02-19T16:06:58.001Z,33.42
2024-02-19T16:07:32.996Z,33.54
2024-02-19T16:08:37.739Z,33.81
2024-02-19T16:09:14.879Z,33.84
2024-02-19T16:09:52.047Z,33.13
2024-02-19T16:10:27.458Z,33.58
2024-02-19T16:11:05.036Z,33.40
2024-02-19T16:11:40.383Z,33.65
2024-02-19T16:12:16.254Z,33.55
2024-02-19T16:12:53.803Z,33.49
2024-02-19T16:13:35.492Z,33.60
2024-02-19T16:14:10.654Z,33.41
2024-02-19T16:14:51.018Z,33.38
2024-02-19T16:15:26.265Z,33.03
2024-02-19T16:16:03.954Z,33.09
2024-02-19T16:16:38.908Z,33.58
2024-02-19T16:17:13.899Z,33.23
2024-02-19T16:17:48.607Z,33.26
2024-02-19T16:18:23.950Z,32.97
2024-02-19T16:18:59.377Z,33.54
2024-02-19T16:19:34.405Z,33.58
2024-02-19T16:20:10.143Z,33.90
2024-02-19T16:20:45.908Z,33.36
2024-02-19T16:21:20.794Z,33.74
2024-02-19T16:21:55.553Z,33.25
2024-02-19T16:22:31.609Z,33.23
2024-02-19T16:23:06.588Z,33.12
2024-02-19T16:23:42.999Z,33.11
2024-02-19T16:24:18.993Z,33.11
2024-02-19T16:24:53.746Z,33.61
2024-02-19T16:25:28.750Z,33.52
2024-02-19T16:26:05.867Z,33.52
2024-02-19T16:26:41.409Z,33.38
2024-02-19T16:27:16.794Z,33.48
2024-02-19T16:27:54.133Z,33.33
2024-02-19T16:28:30.129Z,33.52
2024-02-19T16:29:05.958Z,33.38
2024-02-19T16:29:43.199Z,33.27
2024-02-19T16:30:18.063Z,33.32
2024-02-19T16:30:53.328Z,33.44
2024-02-19T16:31:27.789Z,32.82
2024-02-19T16:32:04.530Z,33.11
2024-02-19T16:32:39.905Z,33.16
2024-02-19T16:33:18.347Z,33.26
2024-02-19T16:33:53.480Z,33.19
2024-02-19T16:34:28.823Z,32.96
2024-02-19T16:35:04.793Z,33.67
2024-02-19T16:35:39.927Z,33.09
2024-02-19T16:36:14.584Z,32.89
2024-02-19T16:36:49.799Z,33.00
2024-02-19T16:37:25.220Z,33.21
2024-02-19T16:38:01.147Z,33.23
2024-02-19T16:38:39.391Z,33.60
2024-02-19T16:39:14.751Z,33.64
2024-02-19T16:39:53.112Z,33.41
2024-02-19T16:40:30.823Z,32.85
2024-02-19T16:41:06.640Z,33.39
2024-02-19T16:41:41.732Z,33.30
2024-02-19T16:42:19.930Z,33.52
2024-02-19T16:42:55.003Z,33.60
2024-02-19T16:43:30.368Z,33.05
2024-02-19T16:44:05.621Z,33.20
2024-02-19T16:44:41.137Z,33.38
2024-02-19T16:45:16.355Z,33.32
2024-02-19T16:45:51.401Z,32.88
2024-02-19T16:46:26.893Z,32.89
2024-02-19T16:47:01.913Z,33.19
2024-02-19T16:47:36.736Z,33.69
2024-02-19T16:48:12.795Z,32.83
2024-02-19T16:48:48.025Z,33.16
2024-02-19T16:49:23.163Z,32.81
2024-02-19T16:49:58.002Z,32.87
2024-02-19T16:50:33.499Z,33.96
2024-02-19T16:51:12.182Z,33.61
2024-02-19T16:51:48.034Z,32.88
2024-02-19T16:52:22.961Z,33.14
2024-02-19T16:52:58.340Z,33.11
2024-02-19T16:53:35.530Z,32.94
2024-02-19T16:54:10.894Z,33.29
2024-02-19T16:54:45.887Z,32.92
2024-02-19T16:55:21.351Z,32.74
2024-02-19T16:55:56.472Z,32.79
2024-02-19T16:56:31.203Z,33.00
2024-02-19T16:57:06.101Z,32.72
2024-02-19T16:57:40.860Z,32.74
2024-02-19T16:58:19.282Z,33.41
2024-02-19T16:58:54.122Z,32.92
2024-02-19T16:59:28.482Z,33.20
2024-02-19T17:00:05.556Z,32.87
2024-02-19T17:00:40.108Z,32.97
2024-02-19T17:01:17.046Z,32.76
2024-02-19T17:01:52.583Z,33.39
2024-02-19T17:02:27.654Z,33.41
2024-02-19T17:03:05.035Z,32.60
2024-02-19T17:03:40.951Z,33.20
2024-02-19T17:04:16.303Z,33.07
2024-02-19T17:04:52.915Z,33.34
2024-02-19T17:05:28.030Z,32.98
2024-02-19T17:06:04.805Z,32.79
2024-02-19T17:06:40.545Z,33.30
2024-02-19T17:07:18.358Z,33.15
2024-02-19T17:07:53.520Z,32.74
2024-02-19T17:08:30.225Z,32.98
2024-02-19T17:09:07.176Z,33.21
2024-02-19T17:09:42.346Z,33.06
2024-02-19T17:10:19.091Z,32.97
2024-02-19T17:10:54.854Z,33.41
2024-02-19T17:11:30.081Z,33.31
2024-02-19T17:12:06.272Z,32.88
2024-02-19T17:12:43.824Z,32.91
2024-02-19T17:13:19.427Z,33.01
2024-02-19T17:13:55.741Z,32.86
2024-02-19T17:14:33.183Z,33.22
2024-02-19T17:15:08.941Z,32.75
2024-02-19T17:15:44.822Z,33.26
2024-02-19T17:16:20.878Z,32.60
2024-02-19T17:16:58.180Z,32.93
2024-02-19T17:17:33.634Z,33.38
2024-02-19T17:18:10.646Z,33.09
2024-02-19T17:18:45.427Z,32.96
2024-02-19T17:19:21.820Z,33.25
2024-02-19T17:19:57.526Z,32.90
2024-02-19T17:20:33.702Z,33.02
2024-02-19T17:21:10.385Z,32.96
2024-02-19T17:21:46.175Z,33.12
2024-02-19T17:22:21.831Z,33.00
2024-02-19T17:22:56.812Z,32.79
2024-02-19T17:23:31.509Z,33.31
2024-02-19T17:24:06.601Z,32.65
2024-02-19T17:24:43.267Z,32.63
2024-02-19T17:25:18.589Z,32.78
2024-02-19T17:25:53.553Z,33.11
2024-02-19T17:26:28.690Z,32.93
2024-02-19T17:27:04.279Z,33.14
2024-02-19T17:27:39.328Z,32.99
2024-02-19T17:28:16.856Z,32.86
2024-02-19T17:28:51.430Z,33.19
2024-02-19T17:29:25.891Z,32.82
2024-02-19T17:30:00.455Z,33.01
2024-02-19T17:30:35.308Z,32.76
2024-02-19T17:31:10.294Z,33.08
2024-02-19T17:31:47.938Z,32.58
2024-02-19T17:32:24.965Z,32.65
2024-02-19T17:33:00.673Z,32.84
2024-02-19T17:33:37.259Z,32.52
2024-02-19T17:34:13.727Z,32.65
2024-02-19T17:34:52.761Z,32.59
2024-02-19T17:35:29.184Z,32.90
2024-02-19T17:36:04.233Z,32.86
2024-02-19T17:36:39.968Z,32.68
2024-02-19T17:37:14.519Z,32.84
2024-02-19T17:37:50.591Z,32.62
2024-02-19T17:38:25.269Z,33.16
2024-02-19T17:39:00.232Z,32.81
2024-02-19T17:39:35.717Z,33.32
2024-02-19T17:40:12.742Z,32.91
2024-02-19T17:40:47.908Z,32.55
2024-02-19T17:41:23.015Z,33.15
2024-02-19T17:41:57.428Z,32.81
2024-02-19T17:42:33.678Z,32.77
2024-02-19T17:43:09.116Z,32.92
2024-02-19T17:43:45.608Z,32.42
2024-02-19T17:44:23.052Z,32.27
2024-02-19T17:45:00.117Z,32.77
2024-02-19T17:45:35.272Z,32.57
2024-02-19T17:46:20.019Z,32.74
2024-02-19T17:46:55.988Z,33.01
2024-02-19T17:47:30.673Z,32.50
2024-02-19T17:48:07.326Z,33.04
2024-02-19T17:48:47.741Z,32.75
2024-02-19T17:49:25.553Z,33.03
2024-02-19T17:50:01.138Z,32.92
2024-02-19T17:50:37.026Z,32.78
2024-02-19T17:51:15.339Z,33.00
2024-02-19T17:51:53.968Z,32.52
2024-02-19T17:52:30.052Z,32.98
2024-02-19T17:53:04.674Z,32.71
2024-02-19T17:53:44.250Z,32.57
2024-02-19T17:54:21.160Z,32.98
2024-02-19T17:55:00.865Z,33.07
2024-02-19T17:55:36.322Z,32.75
2024-02-19T17:56:11.399Z,32.11
2024-02-19T17:56:46.561Z,32.71
2024-02-19T17:57:21.811Z,32.65
2024-02-19T17:57:56.968Z,32.70
2024-02-19T17:58:34.859Z,32.59
2024-02-19T17:59:11.988Z,32.73
2024-02-19T17:59:47.846Z,32.79
2024-02-19T18:00:23.295Z,32.49
2024-02-19T18:00:58.154Z,32.98
2024-02-19T18:01:32.729Z,32.46
2024-02-19T18:02:08.308Z,32.91
2024-02-19T18:02:44.887Z,32.17
2024-02-19T18:03:19.596Z,32.36
2024-02-19T18:03:56.234Z,32.41
2024-02-19T18:04:31.783Z,32.57
2024-02-19T18:05:06.954Z,32.51
2024-02-19T18:05:42.507Z,32.83
2024-02-19T18:06:18.017Z,32.94
2024-02-19T18:06:53.264Z,32.60
2024-02-19T18:07:29.173Z,32.41
2024-02-19T18:08:04.578Z,32.35
2024-02-19T18:08:39.802Z,32.66
2024-02-19T18:09:14.588Z,32.23
2024-02-19T18:09:50.272Z,32.68
2024-02-19T18:10:25.741Z,32.56
2024-02-19T18:11:01.296Z,32.77
2024-02-19T18:11:37.084Z,32.66
2024-02-19T18:12:12.266Z,32.88
2024-02-19T18:12:50.108Z,32.48
2024-02-19T18:13:26.206Z,32.45
2024-02-19T18:14:01.514Z,32.04
2024-02-19T18:14:37.919Z,32.36
2024-02-19T18:15:13.785Z,32.36
2024-02-19T18:15:48.266Z,32.39
2024-02-19T18:16:23.130Z,32.50
2024-02-19T18:16:58.206Z,32.32
2024-02-19T18:17:33.154Z,32.18
2024-02-19T18:18:10.625Z,32.65
2024-02-19T18:18:46.490Z,32.52
2024-02-19T18:19:23.230Z,32.28
2024-02-19T18:19:57.993Z,32.60
2024-02-19T18:20:34.462Z,32.44
2024-02-19T18:21:10.540Z,32.21
2024-02-19T18:21:47.174Z,32.21
